createdAt,value
2023-04-23T00:04:41.093Z,3.7
2023-04-23T00:10:33.567Z,3.6
2023-04-23T00:16:25.503Z,3.4
2023-04-23T00:22:16.614Z,3.4
2023-04-23T00:28:07.583Z,3.4
2023-04-23T00:33:59.476Z,3.3
2023-04-23T00:39:35.174Z,3.3
2023-04-23T00:45:26.353Z,3.3
2023-04-23T00:51:18.455Z,3.2
2023-04-23T00:57:09.889Z,3.2
2023-04-23T01:03:01.015Z,3.1
2023-04-23T01:08:53.461Z,3
2023-04-23T01:14:44.739Z,2.9
2023-04-23T01:20:20.729Z,2.9
2023-04-23T01:26:12.060Z,2.9
2023-04-23T01:32:03.734Z,2.9
2023-04-23T01:37:55.434Z,2.9
2023-04-23T01:43:46.954Z,2.9
2023-04-23T01:49:41.175Z,2.9
2023-04-23T01:55:32.441Z,2.9
2023-04-23T02:01:07.338Z,2.9
2023-04-23T02:07:00.837Z,2.8
2023-04-23T02:12:52.666Z,2.8
2023-04-23T02:18:44.749Z,2.6
2023-04-23T02:24:36.862Z,2.6
2023-04-23T02:30:28.410Z,2.6
2023-04-23T02:36:20.348Z,2.5
2023-04-23T02:42:11.496Z,2.4
2023-04-23T02:48:02.744Z,2.3
2023-04-23T02:53:54.144Z,2.3
2023-04-23T02:59:46.181Z,2.1
2023-04-23T03:05:39.716Z,2.1
2023-04-23T03:11:15.360Z,2
2023-04-23T03:17:07.134Z,1.9
2023-04-23T03:22:58.564Z,1.9
2023-04-23T03:28:51.656Z,1.9
2023-04-23T03:34:43.602Z,1.9
2023-04-23T03:40:35.134Z,1.9
2023-04-23T03:46:11.253Z,1.9
2023-04-23T03:51:47.522Z,1.9
2023-04-23T03:57:23.540Z,2
2023-04-23T04:03:15.173Z,2.1
2023-04-23T04:09:09.536Z,2.2
2023-04-23T04:15:01.121Z,2.3
2023-04-23T04:20:54.548Z,2.4
2023-04-23T04:26:45.432Z,2.6
2023-04-23T04:32:36.986Z,2.9
2023-04-23T04:38:28.762Z,3.1
2023-04-23T04:44:20.158Z,3.6
2023-04-23T04:50:12.290Z,4.4
2023-04-23T04:56:03.399Z,5.4
2023-04-23T05:01:39.588Z,6.7
2023-04-23T05:07:32.801Z,8.2
2023-04-23T05:13:25.881Z,9.8
2023-04-23T05:19:17.664Z,11.8
2023-04-23T05:25:09.452Z,13.9
2023-04-23T05:31:01.141Z,16.5
2023-04-23T05:36:59.079Z,19.3
2023-04-23T05:42:52.194Z,21.8
2023-04-23T05:48:44.354Z,24.5
2023-04-23T05:54:38.044Z,27.4
2023-04-23T06:00:29.425Z,30.1
2023-04-23T06:06:10.547Z,33
2023-04-23T06:12:03.802Z,35.8
2023-04-23T06:17:57.227Z,38.2
2023-04-23T06:23:48.598Z,39.3
2023-04-23T06:29:40.172Z,40.6
2023-04-23T06:35:42.666Z,43.9
2023-04-23T06:41:34.326Z,46.3
2023-04-23T06:47:26.159Z,38.5
2023-04-23T06:53:18.213Z,37
2023-04-23T06:59:11.443Z,44.6
2023-04-23T07:05:04.740Z,40.6
2023-04-23T07:10:55.874Z,38.4
2023-04-23T07:16:47.191Z,39.3
2023-04-23T07:22:38.801Z,39.9
2023-04-23T07:28:29.672Z,40.5
2023-04-23T07:34:21.234Z,40.8
2023-04-23T07:40:15.533Z,41.3
2023-04-23T07:46:07.142Z,42.3
2023-04-23T07:51:44.352Z,43.5
2023-04-23T07:57:38.485Z,44.1
2023-04-23T08:03:30.559Z,44.6
2023-04-23T08:09:24.172Z,45.5
2023-04-23T08:15:15.866Z,46.5
2023-04-23T08:21:23.201Z,47.9
2023-04-23T08:27:14.833Z,45.6
2023-04-23T08:33:07.675Z,47.1
2023-04-23T08:38:55.739Z,49.8
2023-04-23T08:44:32.214Z,51.6
2023-04-23T08:50:08.459Z,51
2023-04-23T08:56:00.161Z,51.8
2023-04-23T09:01:36.911Z,53.3
2023-04-23T09:07:15.365Z,54.9
2023-04-23T09:13:09.360Z,55.4
2023-04-23T09:18:59.913Z,49.4
2023-04-23T09:24:35.725Z,45.9
2023-04-23T09:36:04.348Z,57.6
2023-04-23T09:41:40.498Z,57.6
2023-04-23T09:47:32.543Z,58.4
2023-04-23T09:53:09.468Z,59.4
2023-04-23T09:59:03.018Z,58.5
2023-04-23T10:05:14.505Z,59
2023-04-23T10:12:55.467Z,60.5
2023-04-23T10:19:07.822Z,59.7
2023-04-23T10:25:10.466Z,59.3
2023-04-23T10:31:18.605Z,60.2
2023-04-23T10:37:39.903Z,61.6
2023-04-23T10:43:17.070Z,61.6
2023-04-23T10:49:19.299Z,60.9
2023-04-23T10:56:11.403Z,61.3
2023-04-23T11:02:02.784Z,61.1
2023-04-23T11:08:00.336Z,61.1
2023-04-23T11:13:59.042Z,59.1
2023-04-23T11:19:38.228Z,60.1
2023-04-23T11:25:29.501Z,60.3
2023-04-23T11:31:21.068Z,60.8
2023-04-23T11:37:22.901Z,61.4
2023-04-23T11:42:59.338Z,61.4
2023-04-23T11:48:20.638Z,61.1
2023-04-23T11:53:57.462Z,59.9
2023-04-23T11:59:50.867Z,60.7
2023-04-23T12:05:44.091Z,61.6
2023-04-23T12:11:44.769Z,62.1
2023-04-23T12:17:22.820Z,61.6
2023-04-23T12:23:14.343Z,61.6
2023-04-23T12:29:06.678Z,53.7
2023-04-23T12:34:58.552Z,48.3
2023-04-23T12:40:50.176Z,45.5
2023-04-23T12:46:41.559Z,43.5
2023-04-23T12:52:33.687Z,41.9
2023-04-23T12:58:25.601Z,40.7
2023-04-23T13:04:20.277Z,39.4
2023-04-23T13:10:11.750Z,38.3
2023-04-23T13:15:48.706Z,38
2023-04-23T13:21:43.033Z,38.3
2023-04-23T13:27:35.086Z,38.1
2023-04-23T13:33:11.523Z,40.6
2023-04-23T13:38:47.614Z,42.4
2023-04-23T13:44:53.177Z,45.6
2023-04-23T13:50:45.475Z,48.7
2023-04-23T13:56:53.778Z,50.7
2023-04-23T14:02:43.257Z,48.9
2023-04-23T14:08:20.744Z,46.1
2023-04-23T14:13:57.668Z,44.4
2023-04-23T14:19:34.695Z,44.5
2023-04-23T14:25:29.386Z,44.8
2023-04-23T14:31:35.957Z,44.4
2023-04-23T14:37:42.589Z,41.9
2023-04-23T14:43:46.001Z,39.8
2023-04-23T14:49:37.993Z,37.3
2023-04-23T14:55:13.933Z,35.2
2023-04-23T15:01:06.335Z,33.7
2023-04-23T15:07:00.645Z,32.4
2023-04-23T15:12:52.342Z,31.4
2023-04-23T15:18:55.494Z,31
2023-04-23T15:24:47.509Z,30.5
2023-04-23T15:30:23.777Z,29.1
2023-04-23T15:36:17.504Z,27.9
2023-04-23T15:42:08.672Z,26.8
2023-04-23T15:48:00.242Z,25.8
2023-04-23T15:53:51.892Z,25.3
2023-04-23T15:59:44.579Z,24.8
2023-04-23T16:05:55.347Z,24.2
2023-04-23T16:11:48.621Z,23.7
2023-04-23T16:17:40.667Z,23
2023-04-23T16:23:33.318Z,22.4
2023-04-23T16:29:45.149Z,21.8
2023-04-23T16:35:38.238Z,21.1
2023-04-23T16:41:28.828Z,20.4
2023-04-23T16:47:21.557Z,19.9
2023-04-23T16:53:15.236Z,19.3
2023-04-23T16:59:08.355Z,18.8
2023-04-23T17:05:03.356Z,18.3
2023-04-23T17:10:56.404Z,17.8
2023-04-23T17:16:34.074Z,17.3
2023-04-23T17:22:11.420Z,16.8
2023-04-23T17:28:04.212Z,16.4
2023-04-23T17:33:58.012Z,16
2023-04-23T17:39:57.925Z,15.6
2023-04-23T17:45:51.083Z,15.3
2023-04-23T17:51:46.967Z,15
2023-04-23T17:57:27.937Z,14.8
2023-04-23T18:03:24.614Z,14.5
2023-04-23T18:09:06.197Z,14.3
2023-04-23T18:14:44.722Z,14.1
2023-04-23T18:20:24.665Z,13.9
2023-04-23T18:25:47.211Z,13.6
2023-04-23T18:31:25.279Z,13.5
2023-04-23T18:37:15.931Z,13.3
2023-04-23T18:43:48.112Z,13.2
2023-04-23T18:49:26.726Z,13
2023-04-23T18:55:08.040Z,12.9
2023-04-23T19:01:01.188Z,12.6
2023-04-23T19:07:22.093Z,12.4
2023-04-23T19:13:00.164Z,12.3
2023-04-23T19:18:37.711Z,12.3
2023-04-23T19:24:16.026Z,12.1
2023-04-23T19:30:09.753Z,11.9
2023-04-23T19:36:03.181Z,11.7
2023-04-23T19:41:25.819Z,11.6
2023-04-23T19:47:19.445Z,11.5
2023-04-23T19:52:41.589Z,11.4
2023-04-23T19:58:37.026Z,11.3
2023-04-23T20:04:16.369Z,11.1
2023-04-23T20:09:53.516Z,11
2023-04-23T20:15:31.092Z,10.9
2023-04-23T20:20:56.497Z,10.9
2023-04-23T20:26:33.842Z,10.8
2023-04-23T20:32:11.000Z,10.7
2023-04-23T20:37:48.236Z,10.6
2023-04-23T20:43:40.092Z,10.5
2023-04-23T20:49:16.293Z,10.4
2023-04-23T20:54:52.373Z,10.4
2023-04-23T21:00:43.528Z,10.4
2023-04-23T21:06:37.638Z,10.3
2023-04-23T21:12:29.299Z,10.3
2023-04-23T21:18:21.038Z,10.2
2023-04-23T21:24:12.526Z,10.1
2023-04-23T21:30:06.365Z,10
2023-04-23T21:35:42.532Z,9.9
2023-04-23T21:41:33.953Z,9.9
2023-04-23T21:47:26.285Z,9.9
2023-04-23T21:53:18.026Z,9.9
2023-04-23T21:59:25.532Z,9.8
2023-04-23T22:05:38.619Z,9.5
2023-04-23T22:11:29.536Z,9.3
2023-04-23T22:17:48.812Z,9
2023-04-23T22:23:40.220Z,8.9
2023-04-23T22:29:30.603Z,8.9
2023-04-23T22:35:07.224Z,8.9
2023-04-23T22:40:58.979Z,9
2023-04-23T22:46:36.440Z,9.1
2023-04-23T22:52:14.793Z,9.3
2023-04-23T22:57:35.501Z,9.4
2023-04-23T23:03:11.514Z,9.4
2023-04-23T23:08:32.773Z,9.6
2023-04-23T23:14:23.894Z,9.6
2023-04-23T23:20:00.252Z,9.4
2023-04-23T23:25:51.366Z,9.3
2023-04-23T23:31:42.769Z,9.1
2023-04-23T23:37:33.890Z,8.9
2023-04-23T23:43:27.871Z,8.8
2023-04-23T23:49:20.252Z,8.7
2023-04-23T23:54:56.348Z,8.6
